Kezdőlap
METAR-TAF:

METAR-TAF

Repülőterek :

Dakar, Szenegál

földrajzi szélesség: 14-44N, földrajzi hosszúság: 017-30W, magasság: 27 m

Jelenlegi meteorológiai megfigyelések

A jelentés 41 perccel ezelõtt készült, 14:00 UTC
Nyugat-délnyugati szél 8 kt, dél-délnyugati és északnyugati között változik
Hőmérséklet 30°C
Páratartalom 70%
Légköri nyomás 1013 hPa
Látótávolság 10 km, vagy több
Szórványos felhőzet 1300 lábon

METAR: GOOY 161400Z 24008KT 200V320 9999 SCT013 30/24 Q1013

Idő: 14:41 (14:41 UTC)

Előrejelzés

A jelentés 3 órával és 41 perccel ezelõtt készült, 11:00 UTC
Az előrejelzés 16-én 12 óra UTC és 17-én 18 óra UTC között érvényes
Nyugati szél 8 kt
Látótávolság 10 km, vagy több
Szórványos felhőzet 1300 lábon

TAF: GOOY 161100Z 1612/1718 26008KT 9999 SCT013

Meteorológiai megfigyelések és előrejelzések több, mint 4000 repülőtéren (METAR és TAF jelentéseket).

A térképen piros és sárga pontok jelzik az elérhető meteorológiai állomásokat.

Mozgassa az egeret a pont fölött, hogy megjelenjen az állomás neve.

Azután kattintson az időjárási megfigyelések és előrejelzések megtekintéséhez.

A térkép megváltoztatása: kattintson a fekete keresztel jelölt zöld gombra ráközelítéshez, a vonallal jelölt zöld gombra távolításhoz, vagy a zöld nyilakra a szomszédos térképek eléréséhez.


METAR-TAF: